Time;durP1;ratioP1;P1;durP2;ratioP2;P2;SDS_P1;SDS_P2;PMS_P1;PMS_P2;Temp;Humidity;BMP_temperature;BMP_pressure;BME280_temperature;BME280_humidity;BME280_pressure;Samples;Min_cycle;Max_cycle;Signal;HPM_P1;HPM_P2
2022/01/20 00:00:53;;;;;;;12.63;1.48;;;;;;;;;;5093702;28;20047;-85
2022/01/20 00:03:29;;;;;;;8.18;1.25;;;;;;;;;;5092475;28;20048;-84
2022/01/20 00:09:14;;;;;;;9.88;1.60;;;;;;;;;;5096031;28;20052;-83
2022/01/20 00:25:57;;;;;;;10.17;1.30;;;;;;;;;;5096943;28;20036;-84
2022/01/20 00:28:42;;;;;;;7.40;1.52;;;;;;;;;;5091994;28;20336;-83
2022/01/20 00:31:29;;;;;;;9.53;1.20;;;;;;;;;;5079476;28;20455;-83
2022/01/20 00:34:10;;;;;;;3.92;0.93;;;;;;;;;;5077729;28;20289;-83
2022/01/20 00:39:03;;;;;;;9.10;1.23;;;;;;;;;;5098413;28;20043;-84
2022/01/20 00:41:29;;;;;;;8.07;1.30;;;;;;;;;;5096287;28;20051;-84
2022/01/20 00:43:56;;;;;;;5.32;1.60;;;;;;;;;;5092019;28;20046;-84
2022/01/20 00:46:22;;;;;;;7.47;1.40;;;;;;;;;;5095835;28;20044;-84
2022/01/20 00:48:48;;;;;;;8.57;1.33;;;;;;;;;;5093616;28;20039;-83
2022/01/20 00:51:14;;;;;;;8.52;1.55;;;;;;;;;;5098261;27;20560;-84
2022/01/20 00:53:44;;;;;;;12.02;1.58;;;;;;;;;;5080872;28;20042;-84
2022/01/20 00:56:13;;;;;;;11.07;1.73;;;;;;;;;;5074434;28;20035;-84
2022/01/20 00:58:40;;;;;;;15.05;1.33;;;;;;;;;;5077720;28;20051;-84
2022/01/20 01:01:06;;;;;;;13.90;1.77;;;;;;;;;;5076409;28;20126;-84
2022/01/20 01:03:32;;;;;;;10.55;1.38;;;;;;;;;;5072539;28;20043;-84
2022/01/20 01:06:52;;;;;;;10.38;2.15;;;;;;;;;;5097541;27;20036;-85
2022/01/20 01:08:48;;;;;;;10.80;0.95;;;;;;;;;;5084266;28;20051;-88
2022/01/20 01:11:14;;;;;;;8.90;1.88;;;;;;;;;;5070788;28;20054;-85
2022/01/20 01:13:40;;;;;;;10.13;1.60;;;;;;;;;;5078725;28;20154;-85
2022/01/20 01:16:09;;;;;;;9.55;1.60;;;;;;;;;;5084404;28;20050;-85
2022/01/20 01:21:42;;;;;;;7.20;1.50;;;;;;;;;;5095487;28;20040;-85
2022/01/20 01:24:08;;;;;;;5.72;1.63;;;;;;;;;;5077335;28;20389;-86
2022/01/20 01:26:34;;;;;;;7.30;1.90;;;;;;;;;;5097135;28;20043;-85
2022/01/20 01:29:04;;;;;;;11.60;1.77;;;;;;;;;;5089929;28;20048;-85
2022/01/20 01:31:37;;;;;;;17.52;1.65;;;;;;;;;;5092588;28;20089;-85
2022/01/20 01:34:08;;;;;;;10.05;1.77;;;;;;;;;;5076903;28;20100;-85
2022/01/20 01:36:50;;;;;;;15.15;1.85;;;;;;;;;;5073289;28;20043;-85
2022/01/20 01:39:16;;;;;;;11.77;1.88;;;;;;;;;;5072035;28;20044;-85
2022/01/20 01:41:44;;;;;;;17.75;2.05;;;;;;;;;;5088928;28;20048;-85
2022/01/20 01:44:18;;;;;;;11.80;1.45;;;;;;;;;;5080837;28;20043;-85
2022/01/20 01:46:44;;;;;;;15.73;2.65;;;;;;;;;;5076188;28;20046;-85
2022/01/20 01:49:10;;;;;;;15.45;2.47;;;;;;;;;;5100744;28;20043;-85
2022/01/20 01:51:37;;;;;;;17.15;2.35;;;;;;;;;;5103377;28;20098;-85
2022/01/20 01:54:03;;;;;;;13.82;1.90;;;;;;;;;;5070083;28;20036;-85
2022/01/20 01:56:29;;;;;;;11.23;1.90;;;;;;;;;;5071542;28;20044;-85
2022/01/20 01:58:55;;;;;;;12.35;1.65;;;;;;;;;;5094850;28;20040;-86
2022/01/20 02:01:21;;;;;;;19.50;1.90;;;;;;;;;;5078562;28;20094;-86
2022/01/20 02:03:57;;;;;;;17.30;2.45;;;;;;;;;;5091552;28;20539;-85
2022/01/20 02:09:12;;;;;;;11.43;1.80;;;;;;;;;;5095173;28;20043;-85
2022/01/20 02:19:55;;;;;;;15.87;2.57;;;;;;;;;;5092313;28;20403;-85
2022/01/20 02:22:22;;;;;;;17.52;3.95;;;;;;;;;;5094919;28;20054;-85
2022/01/20 02:24:49;;;;;;;24.92;3.47;;;;;;;;;;5077199;28;20462;-85
2022/01/20 02:27:15;;;;;;;16.02;3.85;;;;;;;;;;5075985;28;20051;-86
2022/01/20 02:29:41;;;;;;;19.60;3.92;;;;;;;;;;5084697;28;20050;-86
2022/01/20 02:32:08;;;;;;;22.35;3.35;;;;;;;;;;5082979;28;20046;-86
2022/01/20 02:34:34;;;;;;;25.40;3.97;;;;;;;;;;5094857;28;20039;-86
2022/01/20 02:37:04;;;;;;;19.05;3.08;;;;;;;;;;5078391;28;20625;-86
2022/01/20 02:44:53;;;;;;;15.30;3.72;;;;;;;;;;5096775;28;20043;-86
2022/01/20 02:47:23;;;;;;;18.75;3.40;;;;;;;;;;5077425;28;20047;-86
2022/01/20 02:49:50;;;;;;;22.42;4.70;;;;;;;;;;5072637;28;20583;-86
2022/01/20 02:52:16;;;;;;;11.93;3.33;;;;;;;;;;5092578;28;20496;-86
2022/01/20 02:54:43;;;;;;;21.80;5.25;;;;;;;;;;5069244;27;20401;-85
2022/01/20 02:57:09;;;;;;;18.23;4.13;;;;;;;;;;5064686;28;20086;-85
2022/01/20 02:59:36;;;;;;;22.55;3.65;;;;;;;;;;5068787;28;20062;-85
2022/01/20 03:02:03;;;;;;;25.58;4.05;;;;;;;;;;5072938;28;20044;-86
2022/01/20 03:04:30;;;;;;;18.55;4.00;;;;;;;;;;5078206;28;20040;-85
2022/01/20 03:06:57;;;;;;;19.17;3.65;;;;;;;;;;5075223;28;20043;-85
2022/01/20 03:09:23;;;;;;;31.55;4.07;;;;;;;;;;5074748;28;20043;-85
2022/01/20 03:11:50;;;;;;;22.40;4.15;;;;;;;;;;5095291;27;20051;-86
2022/01/20 03:14:17;;;;;;;19.02;3.42;;;;;;;;;;5094629;28;21825;-85
2022/01/20 03:16:45;;;;;;;17.00;2.72;;;;;;;;;;5076299;28;20036;-86
2022/01/20 03:19:12;;;;;;;18.40;2.55;;;;;;;;;;5079395;28;20143;-85
2022/01/20 03:21:38;;;;;;;13.93;3.15;;;;;;;;;;5075428;28;20047;-85
2022/01/20 03:24:05;;;;;;;18.33;3.75;;;;;;;;;;5095900;28;20063;-85
2022/01/20 03:26:31;;;;;;;20.10;3.65;;;;;;;;;;5093584;28;20051;-85
2022/01/20 03:28:58;;;;;;;14.75;3.05;;;;;;;;;;5077462;28;20036;-85
2022/01/20 03:31:24;;;;;;;9.50;2.83;;;;;;;;;;5091429;27;20043;-85
2022/01/20 03:33:51;;;;;;;12.93;2.35;;;;;;;;;;5074476;28;20791;-84
2022/01/20 03:36:17;;;;;;;17.02;2.85;;;;;;;;;;5090456;28;20040;-85
2022/01/20 03:38:43;;;;;;;8.63;1.92;;;;;;;;;;5102330;27;20043;-84
2022/01/20 03:41:09;;;;;;;13.32;2.65;;;;;;;;;;5066198;28;20406;-85
2022/01/20 03:43:35;;;;;;;10.18;1.77;;;;;;;;;;5078737;28;20139;-85
2022/01/20 03:46:05;;;;;;;13.77;2.00;;;;;;;;;;5081094;28;20086;-84
2022/01/20 03:48:38;;;;;;;11.13;2.05;;;;;;;;;;5085960;28;20118;-84
2022/01/20 03:51:04;;;;;;;11.15;1.95;;;;;;;;;;5080596;28;20044;-85
2022/01/20 03:53:31;;;;;;;7.88;1.75;;;;;;;;;;5065902;28;20813;-84
2022/01/20 03:55:58;;;;;;;14.93;2.00;;;4.30;1.00;;;;;;5080045;28;20036;-84
2022/01/20 03:58:25;;;;;;;14.73;3.10;;;;;;;;;;5082580;28;20044;-84
2022/01/20 04:00:51;;;;;;;9.00;1.58;;;;;;;;;;5060733;28;20391;-84
2022/01/20 04:03:17;;;;;;;13.98;2.60;;;;;;;;;;5079698;28;20047;-84
2022/01/20 04:06:00;;;;;;;14.15;2.47;;;;;;;;;;5082815;28;20043;-84
2022/01/20 04:08:27;;;;;;;19.20;2.67;;;;;;;;;;5080263;28;20369;-83
2022/01/20 04:10:53;;;;;;;13.43;2.75;;;;;;;;;;5073444;28;20036;-84
2022/01/20 04:13:20;;;;;;;25.45;3.33;;;;;;;;;;5079891;28;20127;-84
2022/01/20 04:15:48;;;;;;;14.52;3.15;;;;;;;;;;5064227;28;20063;-84
2022/01/20 04:18:20;;;;;;;9.95;2.72;;;;;;;;;;5063350;28;20496;-84
2022/01/20 04:20:46;;;;;;;11.00;1.83;;;;;;;;;;5063944;28;20036;-85
2022/01/20 04:23:12;;;;;;;7.03;1.55;;;;;;;;;;5079823;28;20460;-85
2022/01/20 04:25:38;;;;;;;10.95;1.75;;;;;;;;;;5064844;28;20036;-85
2022/01/20 04:28:04;;;;;;;8.32;1.83;;;;;;;;;;5079635;28;20039;-85
2022/01/20 04:30:30;;;;;;;8.60;2.10;;;;;;;;;;5063770;28;20031;-84
2022/01/20 04:32:57;;;;;;;13.55;1.95;;;;;;;;;;5082993;28;20365;-84
2022/01/20 04:35:23;;;;;;;16.75;2.03;;;;;;;;;;5088982;28;20051;-84
2022/01/20 04:37:50;;;;;;;9.45;2.00;;;;;;;;;;5079341;28;20044;-84
2022/01/20 04:40:17;;;;;;;13.80;3.42;;;;;;;;;;5075195;28;20094;-84
2022/01/20 04:42:46;;;;;;;16.33;2.25;;;;;;;;;;5076649;28;20420;-84
2022/01/20 04:45:16;;;;;;;22.10;3.97;;;;;;;;;;5076396;28;20050;-85
2022/01/20 04:48:02;;;;;;;8.70;2.00;;;;;;;;;;5078460;28;20059;-84
2022/01/20 04:58:43;;;;;;;10.60;1.67;;;;;;;;;;5093419;28;20048;-84
2022/01/20 05:01:10;;;;;;;8.88;1.55;;;;;;;;;;5085358;28;20512;-84
2022/01/20 05:03:37;;;;;;;10.27;1.77;;;;;;;;;;5096029;27;20059;-84
2022/01/20 05:06:03;;;;;;;8.85;1.80;;;;;;;;;;5100041;28;20047;-84
2022/01/20 05:08:30;;;;;;;9.07;2.25;;;;;;;;;;5096273;28;20105;-84
2022/01/20 05:11:01;;;;;;;14.98;2.97;;;;;;;;;;5077495;28;20038;-84
2022/01/20 05:13:33;;;;;;;8.38;2.05;;;;;;;;;;5073998;28;20039;-84
2022/01/20 05:16:00;;;;;;;17.25;2.58;;;;;;;;;;5081994;28;20089;-84
2022/01/20 05:18:26;;;;;;;9.85;2.33;;;;;;;;;;5076286;28;20484;-84
2022/01/20 05:20:52;;;;;;;11.50;2.40;;;;;;;;;;5073850;28;20068;-84
2022/01/20 05:23:19;;;;;;;9.95;2.05;;;;;;;;;;5080254;28;20047;-85
2022/01/20 05:25:45;;;;;;;5.07;1.13;;;;;;;;;;5097700;28;20507;-84
2022/01/20 05:28:11;;;;;;;3.38;1.08;;;;;;;;;;5092264;28;20072;-84
2022/01/20 05:30:39;;;;;;;10.57;2.75;;;;;;;;;;5069042;28;20460;-84
2022/01/20 05:33:05;;;;;;;6.68;1.90;;;;;;;;;;5089738;28;20051;-84
2022/01/20 05:35:31;;;;;;;17.13;2.60;;;;;;;;;;5080731;28;20089;-84
2022/01/20 05:37:57;;;;;;;18.10;2.05;;;;;;;;;;5075720;28;21596;-84
2022/01/20 05:40:24;;;;;;;13.27;3.05;;;;;;;;;;5081017;28;20055;-84
2022/01/20 05:42:50;;;;;;;13.18;1.92;;;;;;;;;;5079578;28;20040;-84
2022/01/20 05:45:16;;;;;;;9.50;1.88;;;;;;;;;;5091474;28;20567;-84
2022/01/20 05:47:47;;;;;;;14.20;2.08;;;;;;;;;;5096900;28;20044;-83
2022/01/20 05:50:15;;;;;;;7.55;2.20;;;;;;;;;;5079085;28;20040;-84
2022/01/20 05:52:42;;;;;;;13.25;2.25;;;;;;;;;;5080757;28;20071;-83
2022/01/20 05:55:12;;;;;;;9.95;2.22;;;;;;;;;;5077387;28;20408;-83
2022/01/20 05:57:38;;;;;;;12.93;2.25;;;;;;;;;;5095873;28;20861;-83
2022/01/20 06:00:06;;;;;;;11.02;2.28;;;;;;;;;;5091922;28;20469;-84
2022/01/20 06:05:18;;;;;;;11.57;1.85;;;;;;;;;;5057778;28;20181;-84
2022/01/20 06:07:44;;;;;;;13.75;2.97;;;;;;;;;;5071925;28;20389;-84
2022/01/20 06:10:10;;;;;;;7.15;1.67;;;;;;;;;;5094153;28;20055;-84
2022/01/20 06:12:36;;;;;;;7.43;1.98;;;;;;;;;;5075652;28;20036;-84
2022/01/20 06:15:03;;;;;;;16.02;2.50;;;;;;;;;;5097441;28;20039;-84
2022/01/20 06:17:30;;;;;;;8.77;2.47;;;;;;;;;;5096023;28;20408;-83
2022/01/20 06:19:56;;;;;;;8.13;1.70;;;;;;;;;;5073879;28;20583;-83
2022/01/20 06:22:22;;;;;;;11.85;1.85;;;;;;;;;;5077143;28;20131;-83
2022/01/20 06:24:48;;;;;;;13.63;2.20;;;;;;;;;;5097047;28;20040;-83
2022/01/20 06:27:14;;;;;;;10.40;2.00;;;;;;;;;;5095068;28;20087;-85
2022/01/20 06:29:40;;;;;;;12.63;2.13;;;;;;;;;;5096912;28;20116;-84
2022/01/20 06:32:07;;;;;;;19.33;2.60;;;;;;;;;;5093080;28;20048;-84
2022/01/20 06:34:33;;;;;;;14.77;2.47;;;;;;;;;;5074416;28;20144;-83
2022/01/20 06:36:59;;;;;;;12.57;1.88;;;;;;;;;;5092608;28;20086;-84
2022/01/20 06:39:25;;;;;;;14.75;3.25;;;;;;;;;;5082596;28;20074;-84
2022/01/20 06:41:51;;;;;;;16.38;3.45;;;;;;;;;;5096033;28;20127;-84
2022/01/20 06:44:18;;;;;;;12.07;2.60;;;;;;;;;;5089617;28;20050;-84
2022/01/20 06:46:45;;;;;;;6.05;1.63;;;;;;;;;;5071282;28;20190;-86
2022/01/20 06:49:11;;;;;;;3.08;0.80;;;;;;;;;;5072996;28;20054;-84
2022/01/20 06:51:37;;;;;;;5.57;0.95;;;;;;;;;;5096328;28;20043;-83
2022/01/20 06:54:04;;;;;;;8.63;1.45;;;;;;;;;;5091640;28;20043;-84
2022/01/20 06:56:31;;;;;;;17.60;2.25;;;;;;;;;;5093037;28;20048;-83
2022/01/20 06:58:58;;;;;;;13.65;2.30;;;;;;;;;;5081362;28;20039;-84
2022/01/20 07:01:24;;;;;;;15.15;2.20;;;;;;;;;;5074805;28;20067;-84
2022/01/20 07:03:50;;;;;;;14.25;2.67;;;;;;;;;;5083354;28;20051;-84
2022/01/20 07:06:16;;;;;;;12.82;1.88;;;;;;;;;;5076992;28;20047;-84
2022/01/20 07:08:42;;;;;;;14.55;2.30;;;;;;;;;;5094469;28;20046;-84
2022/01/20 07:11:09;;;;;;;17.55;2.63;;;;;;;;;;5098513;28;20063;-83
2022/01/20 07:13:35;;;;;;;12.18;1.98;;;;;;;;;;5094553;28;20127;-83
2022/01/20 07:16:02;;;;;;;12.13;2.60;;;3.30;1.00;;;;;;5080684;28;20126;-83
2022/01/20 07:18:28;;;;;;;18.08;3.03;;;;;;;;;;5078018;28;20060;-83
2022/01/20 07:20:54;;;;;;;12.70;2.63;;;;;;;;;;5073416;28;20031;-84
2022/01/20 07:23:21;;;;;;;12.10;2.42;;;;;;;;;;5099428;28;20047;-83
2022/01/20 07:25:47;;;;;;;11.82;2.17;;;;;;;;;;5086535;28;20042;-83
2022/01/20 07:28:13;;;;;;;18.67;2.40;;;;;;;;;;5078577;28;20501;-84
2022/01/20 07:30:39;;;;;;;17.42;2.88;;;;;;;;;;5099360;28;20032;-83
2022/01/20 07:33:05;;;;;;;9.55;1.92;;;;;;;;;;5073723;28;20483;-83
2022/01/20 07:35:32;;;;;;;9.73;2.15;;;;;;;;;;5084044;28;20441;-83
2022/01/20 07:37:58;;;;;;;14.90;1.95;;;;;;;;;;5078291;27;20092;-83
2022/01/20 07:40:25;;;;;;;11.15;2.78;;;;;;;;;;5096240;28;20500;-83
2022/01/20 07:42:51;;;;;;;11.55;2.08;;;;;;;;;;5082058;28;20039;-84
2022/01/20 07:45:17;;;;;;;19.05;3.42;;;;;;;;;;5081626;28;20051;-83
2022/01/20 07:47:44;;;;;;;14.68;2.92;;;;;;;;;;5100527;28;20039;-83
2022/01/20 07:50:10;;;;;;;21.10;3.50;;;;;;;;;;5081539;28;20051;-83
2022/01/20 07:52:36;;;;;;;21.08;3.17;;;;;;;;;;5079779;28;20466;-88
2022/01/20 07:55:03;;;;;;;15.27;3.05;;;;;;;;;;5092003;28;20378;-84
2022/01/20 07:57:29;;;;;;;9.57;2.20;;;;;;;;;;5074917;28;20535;-84
2022/01/20 07:59:55;;;;;;;12.50;2.47;;;;;;;;;;5098602;28;20043;-84
2022/01/20 08:02:21;;;;;;;10.63;2.35;;;;;;;;;;5098254;28;20027;-84
2022/01/20 08:04:47;;;;;;;14.68;1.95;;;;;;;;;;5087456;28;20500;-84
2022/01/20 08:07:13;;;;;;;17.13;3.17;;;;;;;;;;5079386;28;20050;-85
2022/01/20 08:09:39;;;;;;;8.65;1.50;;;;;;;;;;5097657;28;20039;-85
2022/01/20 08:12:06;;;;;;;12.27;3.30;;;;;;;;;;5084468;28;20036;-84
2022/01/20 08:14:32;;;;;;;13.23;2.38;;;;;;;;;;5097435;28;20047;-83
2022/01/20 08:16:58;;;;;;;16.17;3.53;;;;;;;;;;5079860;28;20581;-84
2022/01/20 08:19:24;;;;;;;15.00;2.30;;;;;;;;;;5080019;28;20031;-83
2022/01/20 08:21:50;;;;;;;10.02;1.88;;;;;;;;;;5092421;28;20043;-84
2022/01/20 08:24:16;;;;;;;12.48;3.03;;;;;;;;;;5096336;28;20070;-84
2022/01/20 08:26:43;;;;;;;16.80;3.03;;;;;;;;;;5077265;28;20047;-84
2022/01/20 08:29:09;;;;;;;17.77;3.20;;;;;;;;;;5083561;28;20101;-84
2022/01/20 08:31:35;;;;;;;11.82;2.67;;;;;;;;;;5084098;28;20036;-84
2022/01/20 08:34:01;;;;;;;14.05;2.67;;;;;;;;;;5079429;28;20036;-84
2022/01/20 08:36:27;;;;;;;15.75;3.00;;;;;;;;;;5097173;28;20044;-85
2022/01/20 08:38:53;;;;;;;11.95;2.47;;;;;;;;;;5081697;28;20130;-82
2022/01/20 08:41:19;;;;;;;14.43;2.20;;;;;;;;;;5080774;28;20106;-83
2022/01/20 08:43:45;;;;;;;10.50;1.83;;;;;;;;;;5100145;28;20028;-82
2022/01/20 08:46:13;;;;;;;9.98;1.83;;;;;;;;;;5095901;28;20047;-81
2022/01/20 08:48:40;;;;;;;15.40;3.00;;;;;;;;;;5097906;28;20054;-84
2022/01/20 08:51:07;;;;;;;12.55;2.40;;;;;;;;;;5077562;28;20080;-83
2022/01/20 08:53:33;;;;;;;13.25;2.08;;;;;;;;;;5096228;28;20465;-81
2022/01/20 08:55:59;;;;;;;15.70;1.85;;;;;;;;;;5095664;28;20048;-83
2022/01/20 08:58:26;;;;;;;9.32;1.92;;;;;;;;;;5092717;28;20046;-82
2022/01/20 09:00:52;;;;;;;17.13;2.22;;;;;;;;;;5077440;28;20036;-82
2022/01/20 09:03:18;;;;;;;13.15;2.60;;;;;;;;;;5100082;28;20503;-84
2022/01/20 09:05:44;;;;;;;12.98;2.67;;;;;;;;;;5082991;27;20036;-82
2022/01/20 09:08:12;;;;;;;9.68;1.80;;;4.90;1.00;;;;;;5097017;28;20074;-80
2022/01/20 09:10:42;;;;;;;9.32;2.67;;;;;;;;;;5090895;28;20035;-82
2022/01/20 09:15:55;;;;;;;12.77;3.53;;;;;;;;;;5095696;28;20165;-81
2022/01/20 09:18:22;;;;;;;13.77;2.30;;;;;;;;;;5075990;28;20040;-81
2022/01/20 09:20:48;;;;;;;14.90;2.30;;;;;;;;;;5096819;28;20092;-81
2022/01/20 09:23:15;;;;;;;14.70;2.33;;;;;;;;;;5070542;28;20043;-82
2022/01/20 09:25:42;;;;;;;10.82;1.95;;;;;;;;;;5088483;28;20035;-82
2022/01/20 09:28:09;;;;;;;16.85;2.17;;;;;;;;;;5096357;28;20132;-82
2022/01/20 09:30:37;;;;;;;15.18;1.67;;;;;;;;;;5092633;28;20040;-83
2022/01/20 09:33:25;;;;;;;9.07;1.88;;;;;;;;;;5074549;28;20044;-81
2022/01/20 09:35:51;;;;;;;11.93;1.95;;;;;;;;;;5073862;28;20148;-81
2022/01/20 09:38:18;;;;;;;12.23;2.05;;;;;;;;;;5098496;28;20148;-80
2022/01/20 09:40:44;;;;;;;9.63;2.13;;;;;;;;;;5089335;28;20076;-81
2022/01/20 09:43:14;;;;;;;12.20;1.83;;;;;;;;;;5076595;28;20451;-81
2022/01/20 09:45:40;;;;;;;10.35;2.10;;;;;;;;;;5076785;28;20158;-81
2022/01/20 09:48:06;;;;;;;18.17;2.55;;;;;;;;;;5085314;28;20040;-82
2022/01/20 09:50:32;;;;;;;15.02;2.88;;;;;;;;;;5091771;28;20467;-81
2022/01/20 09:53:00;;;;;;;9.52;1.65;;;;;;;;;;5074706;28;20447;-81
2022/01/20 09:55:27;;;;;;;13.75;2.22;;;;;;;;;;5068653;28;20039;-81
2022/01/20 09:57:53;;;;;;;12.23;2.25;;;;;;;;;;5106355;28;20044;-81
2022/01/20 10:00:20;;;;;;;16.92;3.03;;;;;;;;;;5070117;28;20067;-82
2022/01/20 10:03:00;;;;;;;12.68;2.22;;;;;;;;;;5095933;28;20040;-81
2022/01/20 10:05:31;;;;;;;15.27;3.10;;;;;;;;;;5093151;28;20396;-81
2022/01/20 10:08:03;;;;;;;18.48;3.45;;;;;;;;;;5085994;28;20047;-83
2022/01/20 10:10:36;;;;;;;21.05;3.55;;;;;;;;;;5094381;28;20043;-81
2022/01/20 10:13:06;;;;;;;20.42;2.97;;;;;;;;;;5076938;28;20589;-81
2022/01/20 10:15:33;;;;;;;17.55;3.40;;;;;;;;;;5097298;28;20051;-81
2022/01/20 10:18:06;;;;;;;19.08;3.08;;;;;;;;;;5087775;28;20462;-81
2022/01/20 10:20:32;;;;;;;8.95;1.65;;;;;;;;;;5095427;28;20047;-81
2022/01/20 10:22:58;;;;;;;11.82;1.98;;;;;;;;;;5073351;28;20113;-82
2022/01/20 10:25:25;;;;;;;14.15;2.55;;;;;;;;;;5068356;28;20052;-81
2022/01/20 10:27:52;;;;;;;19.05;2.95;;;;;;;;;;5077144;28;20495;-81
2022/01/20 10:30:19;;;;;;;9.85;1.85;;;;;;;;;;5088758;28;20134;-82
2022/01/20 10:32:47;;;;;;;6.35;1.60;;;;;;;;;;5088807;28;20036;-82
2022/01/20 10:35:14;;;;;;;12.00;1.90;;;;;;;;;;5091966;28;20054;-82
2022/01/20 10:37:41;;;;;;;12.65;1.75;;;;;;;;;;5092199;27;20044;-82
2022/01/20 10:40:10;;;;;;;7.50;1.88;;;;;;;;;;5102483;27;20157;-82
2022/01/20 10:42:41;;;;;;;11.85;2.05;;;;;;;;;;5101098;27;20042;-82
2022/01/20 10:45:08;;;;;;;19.08;2.38;;;;;;;;;;5083415;27;20035;-86
2022/01/20 10:47:36;;;;;;;14.57;2.65;;;6.00;1.00;;;;;;5095520;27;20078;-80
2022/01/20 10:50:12;;;;;;;16.70;3.88;;;;;;;;;;5081737;27;20039;-81
2022/01/20 10:52:40;;;;;;;9.15;2.08;;;;;;;;;;5105125;27;20043;-81
2022/01/20 10:55:08;;;;;;;10.73;2.67;;;;;;;;;;5096933;27;20534;-80
2022/01/20 10:57:35;;;;;;;9.30;1.60;;;;;;;;;;5087262;27;20048;-81
2022/01/20 11:00:04;;;;;;;12.52;2.15;;;;;;;;;;5105157;27;20389;-81
2022/01/20 11:02:31;;;;;;;11.60;2.42;;;;;;;;;;5083962;27;20064;-81
2022/01/20 11:04:58;;;;;;;8.95;2.28;;;;;;;;;;5097587;27;20877;-82
2022/01/20 11:07:25;;;;;;;17.65;3.25;;;;;;;;;;5097875;27;20043;-82
2022/01/20 11:09:59;;;;;;;15.15;3.72;;;;;;;;;;5118172;27;20502;-86
2022/01/20 11:12:25;;;;;;;13.70;3.50;;;;;;;;;;5096801;27;20134;-82
2022/01/20 11:14:52;;;;;;;14.13;2.53;;;;;;;;;;5100097;27;20504;-82
2022/01/20 11:17:22;;;;;;;9.73;2.55;;;;;;;;;;5098183;27;20035;-83
2022/01/20 11:19:49;;;;;;;14.52;3.38;;;;;;;;;;5099222;27;20070;-82
2022/01/20 11:22:16;;;;;;;14.23;3.15;;;;;;;;;;5096624;27;20495;-82
2022/01/20 11:24:43;;;;;;;13.02;1.77;;;;;;;;;;5097316;27;20072;-82
2022/01/20 11:27:14;;;;;;;16.67;1.80;;;;;;;;;;5092672;27;20621;-83
2022/01/20 11:29:40;;;;;;;14.15;2.25;;;;;;;;;;5116050;27;20044;-82
2022/01/20 11:32:19;;;;;;;15.88;2.72;;;;;;;;;;5075780;27;20038;-82
2022/01/20 11:34:58;;;;;;;4.10;1.30;;;;;;;;;;5098283;27;20042;-82
2022/01/20 11:37:24;;;;;;;6.72;1.40;;;;;;;;;;5082309;27;20408;-82
2022/01/20 11:39:54;;;;;;;9.35;1.95;;;;;;;;;;5101062;27;20035;-81
2022/01/20 11:42:26;;;;;;;10.20;1.85;;;;;;;;;;5077913;27;20050;-83
2022/01/20 11:44:53;;;;;;;15.50;3.10;;;;;;;;;;5114470;27;20339;-83
2022/01/20 11:47:19;;;;;;;12.52;2.78;;;;;;;;;;5081396;27;20038;-82
2022/01/20 11:49:45;;;;;;;14.50;2.55;;;;;;;;;;5097748;27;20042;-81
2022/01/20 11:52:24;;;;;;;15.50;3.97;;;;;;;;;;5097215;27;20035;-82
2022/01/20 11:54:51;;;;;;;11.90;2.50;;;;;;;;;;5081115;27;20039;-82
2022/01/20 11:57:20;;;;;;;12.18;2.58;;;;;;;;;;5098104;27;20043;-81
2022/01/20 11:59:53;;;;;;;12.40;1.90;;;;;;;;;;5098051;27;20091;-84
2022/01/20 12:02:33;;;;;;;12.60;2.10;;;;;;;;;;5086769;27;20154;-83
2022/01/20 12:05:00;;;;;;;10.20;2.10;;;;;;;;;;5104161;27;20039;-83
2022/01/20 12:07:28;;;;;;;18.45;2.65;;;;;;;;;;5105051;27;20058;-84
2022/01/20 12:10:04;;;;;;;14.80;2.47;;;;;;;;;;5081662;28;20428;-84
2022/01/20 12:12:32;;;;;;;9.23;2.38;;;;;;;;;;5098835;27;20070;-83
2022/01/20 12:15:06;;;;;;;12.18;1.58;;;;;;;;;;5092610;28;20146;-82
2022/01/20 12:17:32;;;;;;;10.15;2.47;;;;;;;;;;5094384;27;20074;-85
2022/01/20 12:19:58;;;;;;;10.20;1.73;;;;;;;;;;5076920;27;20040;-82
2022/01/20 12:22:24;;;;;;;11.25;1.70;;;;;;;;;;5102071;27;20066;-82
2022/01/20 12:24:55;;;;;;;13.50;1.95;;;;;;;;;;5102489;27;20039;-82
2022/01/20 12:27:22;;;;;;;15.90;2.08;;;;;;;;;;5092230;28;20505;-82
2022/01/20 12:29:48;;;;;;;16.30;2.13;;;;;;;;;;5096652;28;20052;-82
2022/01/20 12:32:16;;;;;;;12.90;1.98;;;;;;;;;;5100417;27;20070;-83
2022/01/20 12:34:43;;;;;;;12.57;2.15;;;;;;;;;;5102817;27;20054;-82
2022/01/20 12:37:09;;;;;;;14.68;2.47;;;;;;;;;;5101678;27;20082;-82
2022/01/20 12:39:36;;;;;;;16.30;2.70;;;;;;;;;;5077267;28;20668;-82
2022/01/20 12:42:04;;;;;;;10.82;2.38;;;;;;;;;;5086018;27;20062;-81
2022/01/20 12:45:01;;;;;;;11.98;1.90;;;;;;;;;;5095649;27;20047;-82
2022/01/20 12:47:28;;;;;;;10.20;1.95;;;8.00;1.00;;;;;;5073270;28;20413;-82
2022/01/20 12:49:59;;;;;;;14.90;1.95;;;;;;;;;;5098074;27;20465;-82
2022/01/20 12:52:25;;;;;;;14.38;2.20;;;;;;;;;;5073785;28;20232;-83
2022/01/20 12:54:52;;;;;;;7.63;1.52;;;;;;;;;;5097220;27;20501;-82
2022/01/20 12:57:19;;;;;;;10.68;1.83;;;6.30;1.00;;;;;;5076275;27;20042;-82
2022/01/20 12:59:47;;;;;;;18.15;3.08;;;;;;;;;;5098501;27;20531;-82
2022/01/20 13:02:19;;;;;;;19.85;2.58;;;;;;;;;;5098473;28;20050;-82
2022/01/20 13:04:46;;;;;;;13.25;2.17;;;;;;;;;;5076599;27;20491;-82
2022/01/20 13:07:16;;;;;;;6.15;1.30;;;;;;;;;;5075575;28;20427;-83
2022/01/20 13:09:43;;;;;;;6.35;1.02;;;;;;;;;;5079184;28;20572;-83
2022/01/20 13:12:10;;;;;;;12.25;1.25;;;;;;;;;;5093263;27;20535;-82
2022/01/20 13:14:39;;;;;;;9.82;1.50;;;;;;;;;;5079003;27;20039;-82
2022/01/20 13:17:07;;;;;;;12.05;2.08;;;;;;;;;;5082054;27;20116;-82
2022/01/20 13:19:43;;;;;;;9.75;1.75;;;;;;;;;;5084898;27;20126;-81
2022/01/20 13:22:19;;;;;;;10.45;2.17;;;;;;;;;;5097831;27;20575;-81
2022/01/20 13:24:46;;;;;;;7.25;1.58;;;;;;;;;;5090375;28;20032;-82
2022/01/20 13:27:13;;;;;;;7.50;1.63;;;;;;;;;;5092788;27;20537;-82
2022/01/20 13:29:41;;;;;;;7.93;1.58;;;;;;;;;;5092702;28;20158;-82
2022/01/20 13:32:08;;;;;;;3.65;1.02;;;;;;;;;;5083466;27;20092;-82
2022/01/20 13:34:34;;;;;;;8.20;2.13;;;;;;;;;;5098229;27;20039;-82
2022/01/20 13:37:00;;;;;;;11.95;1.95;;;;;;;;;;5103333;27;20094;-82
2022/01/20 13:39:30;;;;;;;15.23;1.95;;;;;;;;;;5075718;28;20127;-82
2022/01/20 13:42:45;;;;;;;13.30;2.20;;;8.30;1.00;;;;;;5090366;28;20138;-82
2022/01/20 13:45:14;;;;;;;10.02;1.48;;;;;;;;;;5096690;28;20158;-82
2022/01/20 13:47:59;;;;;;;10.80;1.50;;;;;;;;;;5102361;27;20170;-82
2022/01/20 13:50:27;;;;;;;6.75;1.08;;;;;;;;;;5093993;28;20077;-82
2022/01/20 13:52:54;;;;;;;9.68;1.45;;;;;;;;;;5087046;28;20126;-82
2022/01/20 13:55:22;;;;;;;9.60;1.33;;;;;;;;;;5093734;28;20128;-82
2022/01/20 13:57:48;;;;;;;10.30;1.63;;;;;;;;;;5092500;28;20036;-83
2022/01/20 14:00:15;;;;;;;14.30;1.75;;;;;;;;;;5075285;28;20043;-83
2022/01/20 14:02:47;;;;;;;13.65;2.03;;;5.10;1.00;;;;;;5075188;27;20031;-82
2022/01/20 14:05:13;;;;;;;24.58;2.75;;;;;;;;;;5095442;28;20043;-82
2022/01/20 14:07:40;;;;;;;14.50;3.05;;;;;;;;;;5077956;28;20279;-82
2022/01/20 14:10:06;;;;;;;10.25;1.95;;;;;;;;;;5100691;27;20541;-82
2022/01/20 14:12:32;;;;;;;8.38;1.77;;;;;;;;;;5099486;27;20528;-82
2022/01/20 14:14:59;;;;;;;16.42;2.95;;;;;;;;;;5102654;27;20043;-82
2022/01/20 14:17:25;;;;;;;8.88;1.35;;;;;;;;;;5097782;27;20042;-82
2022/01/20 14:19:57;;;;;;;13.57;2.15;;;;;;;;;;5088256;27;20111;-82
2022/01/20 14:22:24;;;;;;;15.07;2.65;;;;;;;;;;5101476;28;20053;-82
2022/01/20 14:24:50;;;;;;;22.60;3.42;;;;;;;;;;5096839;28;20035;-82
2022/01/20 14:27:18;;;;;;;16.90;4.07;;;;;;;;;;5080017;27;20050;-82
2022/01/20 14:29:46;;;;;;;16.55;2.35;;;;;;;;;;5085310;27;20035;-82
2022/01/20 14:32:13;;;;;;;13.27;2.85;;;;;;;;;;5098651;27;20051;-81
2022/01/20 14:34:40;;;;;;;13.30;3.38;;;4.70;1.00;;;;;;5100214;27;20123;-82
2022/01/20 14:37:07;;;;;;;12.88;2.40;;;;;;;;;;5083361;27;20043;-82
2022/01/20 14:39:34;;;;;;;7.50;2.00;;;;;;;;;;5102107;27;20092;-82
2022/01/20 14:42:01;;;;;;;8.30;1.33;;;;;;;;;;5105457;27;20668;-82
2022/01/20 14:44:28;;;;;;;10.13;1.52;;;;;;;;;;5097852;27;20088;-82
2022/01/20 14:46:54;;;;;;;13.27;1.50;;;;;;;;;;5099873;27;20081;-81
2022/01/20 14:49:20;;;;;;;10.50;2.22;;;;;;;;;;5081456;27;20051;-81
2022/01/20 14:51:48;;;;;;;20.02;2.85;;;;;;;;;;5095336;27;20692;-82
2022/01/20 14:54:14;;;;;;;10.70;1.75;;;;;;;;;;5081027;27;20469;-82
2022/01/20 14:56:41;;;;;;;8.90;1.48;;;;;;;;;;5105860;27;20484;-81
2022/01/20 14:59:07;;;;;;;12.35;2.05;;;;;;;;;;5093684;27;20496;-82
2022/01/20 15:01:33;;;;;;;16.50;2.45;;;;;;;;;;5097997;27;20305;-82
2022/01/20 15:03:59;;;;;;;10.93;1.48;;;;;;;;;;5077627;27;20408;-81
2022/01/20 15:06:25;;;;;;;9.90;2.10;;;;;;;;;;5103769;27;20053;-80
2022/01/20 15:08:52;;;;;;;8.00;1.33;;;;;;;;;;5091031;27;20047;-81
2022/01/20 15:11:18;;;;;;;10.75;1.95;;;;;;;;;;5090299;28;20520;-81
2022/01/20 15:13:44;;;;;;;8.20;1.20;;;;;;;;;;5101760;27;20483;-81
2022/01/20 15:16:10;;;;;;;18.90;2.55;;;;;;;;;;5083010;27;20150;-80
2022/01/20 15:18:36;;;;;;;16.15;2.40;;;;;;;;;;5076572;27;20035;-81
2022/01/20 15:21:02;;;;;;;22.52;2.97;;;;;;;;;;5093974;27;20039;-81
2022/01/20 15:23:28;;;;;;;19.48;3.08;;;;;;;;;;5085966;27;20070;-81
2022/01/20 15:25:55;;;;;;;9.32;1.77;;;;;;;;;;5087899;27;20410;-82
2022/01/20 15:28:21;;;;;;;11.15;1.85;;;;;;;;;;5097474;27;20048;-81